createdAt,value
2023-02-26T00:03:55.694Z,12.00
2023-02-26T00:09:00.554Z,12.00
2023-02-26T00:14:04.315Z,12.10
2023-02-26T00:19:11.870Z,12.10
2023-02-26T00:24:16.587Z,12.10
2023-02-26T00:29:20.288Z,12.00
2023-02-26T00:34:24.287Z,11.90
2023-02-26T00:39:40.150Z,11.90
2023-02-26T00:44:44.216Z,11.90
2023-02-26T00:49:58.430Z,11.80
2023-02-26T00:55:03.472Z,11.70
2023-02-26T01:00:08.492Z,11.70
2023-02-26T01:05:13.386Z,11.70
2023-02-26T01:10:20.803Z,11.70
2023-02-26T01:15:25.097Z,11.70
2023-02-26T01:20:33.134Z,11.70
2023-02-26T01:25:43.188Z,11.70
2023-02-26T01:30:47.245Z,11.70
2023-02-26T01:35:54.104Z,11.70
2023-02-26T01:41:28.543Z,11.70
2023-02-26T01:46:40.478Z,11.60
2023-02-26T01:51:50.233Z,11.60
2023-02-26T01:56:58.562Z,11.50
2023-02-26T02:02:05.820Z,11.50
2023-02-26T02:07:09.795Z,11.50
2023-02-26T02:12:26.454Z,11.50
2023-02-26T02:17:39.895Z,11.50
2023-02-26T02:23:01.603Z,11.40
2023-02-26T02:28:17.026Z,11.40
2023-02-26T02:33:24.459Z,11.40
2023-02-26T02:38:34.828Z,11.40
2023-02-26T02:43:40.481Z,11.40
2023-02-26T02:48:48.670Z,11.40
2023-02-26T02:53:57.536Z,11.40
2023-02-26T02:59:07.139Z,11.30
2023-02-26T03:04:15.185Z,11.30
2023-02-26T03:09:18.870Z,11.30
2023-02-26T03:14:22.681Z,11.30
2023-02-26T03:19:36.686Z,11.30
2023-02-26T03:24:48.017Z,11.30
2023-02-26T03:29:56.214Z,11.30
2023-02-26T03:35:08.712Z,11.30
2023-02-26T03:40:18.161Z,11.40
2023-02-26T03:45:27.539Z,11.40
2023-02-26T03:50:36.143Z,11.40
2023-02-26T03:56:21.755Z,11.30
2023-02-26T04:01:48.339Z,11.40
2023-02-26T04:06:55.376Z,11.40
2023-02-26T04:11:59.962Z,11.40
2023-02-26T04:17:03.895Z,11.40
2023-02-26T04:22:09.077Z,11.30
2023-02-26T04:27:13.228Z,11.40
2023-02-26T04:32:16.605Z,11.30
2023-02-26T04:37:21.763Z,11.30
2023-02-26T04:42:25.355Z,11.30
2023-02-26T04:47:29.033Z,11.30
2023-02-26T04:52:33.980Z,11.30
2023-02-26T04:57:38.363Z,11.30
2023-02-26T05:02:42.514Z,11.30
2023-02-26T05:07:47.292Z,11.30
2023-02-26T05:12:52.500Z,11.30
2023-02-26T05:17:56.255Z,11.30
2023-02-26T05:23:01.227Z,11.20
2023-02-26T05:28:04.621Z,11.20
2023-02-26T05:33:08.108Z,11.20
2023-02-26T05:38:12.862Z,11.20
2023-02-26T05:43:16.270Z,11.20
2023-02-26T05:48:20.090Z,11.20
2023-02-26T05:53:24.988Z,11.10
2023-02-26T05:58:29.135Z,11.10
2023-02-26T06:03:32.542Z,11.10
2023-02-26T06:08:37.445Z,11.00
2023-02-26T06:13:40.848Z,11.00
2023-02-26T06:18:44.345Z,10.90
2023-02-26T06:23:49.190Z,10.80
2023-02-26T06:28:52.660Z,10.80
2023-02-26T06:33:56.031Z,10.80
2023-02-26T06:39:00.936Z,10.80
2023-02-26T06:44:05.569Z,10.80
2023-02-26T06:49:09.638Z,10.80
2023-02-26T06:54:14.471Z,10.80
2023-02-26T06:59:17.841Z,10.80
2023-02-26T07:04:21.464Z,10.80
2023-02-26T07:09:26.306Z,10.80
2023-02-26T07:14:29.831Z,10.80
2023-02-26T07:19:33.435Z,10.90
2023-02-26T07:24:38.400Z,10.90
2023-02-26T07:29:41.814Z,10.90
2023-02-26T07:34:45.322Z,10.90
2023-02-26T07:39:50.222Z,10.90
2023-02-26T07:44:53.681Z,10.90
2023-02-26T07:49:57.217Z,10.90
2023-02-26T07:55:02.114Z,10.90
2023-02-26T08:00:09.409Z,10.90
2023-02-26T08:05:15.795Z,10.90
2023-02-26T08:10:20.748Z,10.90
2023-02-26T08:15:24.653Z,11.00
2023-02-26T08:20:28.129Z,11.00
2023-02-26T08:25:33.363Z,11.10
2023-02-26T08:30:36.856Z,11.10
2023-02-26T08:35:41.051Z,11.20
2023-02-26T08:40:53.121Z,11.20
2023-02-26T08:45:58.071Z,11.30
2023-02-26T08:51:01.900Z,11.30
2023-02-26T08:56:07.565Z,11.30
2023-02-26T09:01:11.733Z,11.40
2023-02-26T09:06:25.293Z,11.40
2023-02-26T09:11:31.147Z,11.40
2023-02-26T09:16:36.967Z,11.50
2023-02-26T09:21:40.798Z,11.50
2023-02-26T09:26:45.695Z,11.60
2023-02-26T09:31:49.425Z,11.70
2023-02-26T09:36:56.326Z,11.70
2023-02-26T09:42:06.586Z,11.80
2023-02-26T09:47:17.973Z,11.90
2023-02-26T09:52:31.030Z,11.90
2023-02-26T09:57:40.317Z,12.00
2023-02-26T10:02:55.383Z,12.00
2023-02-26T10:08:01.810Z,12.10
2023-02-26T10:13:06.862Z,12.20
2023-02-26T10:18:19.183Z,12.30
2023-02-26T10:23:52.857Z,12.40
2023-02-26T10:29:04.095Z,12.60
2023-02-26T10:34:19.032Z,12.80
2023-02-26T10:39:29.974Z,13.00
2023-02-26T10:44:39.806Z,13.10
2023-02-26T10:49:56.146Z,13.20
2023-02-26T10:55:09.186Z,13.30
2023-02-26T11:00:20.806Z,13.50
2023-02-26T11:05:26.051Z,13.60
2023-02-26T11:10:40.232Z,13.70
2023-02-26T11:15:47.464Z,13.70
2023-02-26T11:20:54.740Z,13.70
2023-02-26T11:26:05.792Z,13.70
2023-02-26T11:31:13.097Z,13.60
2023-02-26T11:36:19.678Z,13.60
2023-02-26T11:41:25.419Z,13.50
2023-02-26T11:46:31.290Z,13.40
2023-02-26T11:51:35.545Z,13.30
2023-02-26T11:56:43.286Z,13.20
2023-02-26T12:01:50.022Z,13.20
2023-02-26T12:06:55.806Z,13.10
2023-02-26T12:12:21.696Z,13.10
2023-02-26T12:17:46.260Z,13.10
2023-02-26T12:23:11.973Z,13.10
2023-02-26T12:28:41.645Z,13.00
2023-02-26T12:33:56.935Z,12.80
2023-02-26T12:39:13.054Z,12.80
2023-02-26T12:44:29.753Z,12.80
2023-02-26T12:50:10.634Z,12.70
2023-02-26T12:55:33.354Z,12.70
2023-02-26T13:00:54.293Z,12.70
2023-02-26T13:06:28.780Z,12.70
2023-02-26T13:11:49.949Z,12.70
2023-02-26T13:17:02.022Z,12.60
2023-02-26T13:22:16.808Z,12.60
2023-02-26T13:27:22.850Z,12.60
2023-02-26T13:32:29.650Z,12.60
2023-02-26T13:37:41.232Z,12.60
2023-02-26T13:42:53.268Z,12.50
2023-02-26T13:48:19.240Z,12.50
2023-02-26T13:53:55.233Z,12.50
2023-02-26T13:59:06.826Z,12.50
2023-02-26T14:04:29.485Z,12.50
2023-02-26T14:09:55.848Z,12.50
2023-02-26T14:15:42.384Z,12.40
2023-02-26T14:21:14.444Z,12.50
2023-02-26T14:26:24.447Z,12.40
2023-02-26T14:31:48.052Z,12.40
2023-02-26T14:36:55.936Z,12.40
2023-02-26T14:42:09.268Z,12.40
2023-02-26T14:47:15.115Z,12.40
2023-02-26T14:52:48.342Z,12.40
2023-02-26T14:58:06.827Z,12.30
2023-02-26T15:03:38.928Z,12.30
2023-02-26T15:08:58.033Z,12.30
2023-02-26T15:14:28.014Z,12.30
2023-02-26T15:19:52.306Z,12.30
2023-02-26T15:24:58.077Z,12.20
2023-02-26T15:30:04.467Z,12.10
2023-02-26T15:35:19.863Z,12.10
2023-02-26T15:40:26.705Z,12.10
2023-02-26T15:45:38.070Z,12.10
2023-02-26T15:50:47.563Z,12.00
2023-02-26T15:55:57.593Z,12.00
2023-02-26T16:01:05.859Z,12.00
2023-02-26T16:06:14.798Z,12.00
2023-02-26T16:11:20.739Z,12.00
2023-02-26T16:16:30.315Z,11.90
2023-02-26T16:21:40.203Z,11.90
2023-02-26T16:26:51.598Z,11.90
2023-02-26T16:32:00.061Z,11.80
2023-02-26T16:37:22.865Z,11.80
2023-02-26T16:42:45.409Z,11.80
2023-02-26T16:47:56.297Z,11.80
2023-02-26T16:53:05.366Z,11.90
2023-02-26T16:58:15.611Z,11.80
2023-02-26T17:03:24.085Z,11.80
2023-02-26T17:08:34.054Z,11.80
2023-02-26T17:13:40.076Z,11.80
2023-02-26T17:18:46.306Z,11.80
2023-02-26T17:23:51.998Z,11.80
2023-02-26T17:28:56.844Z,11.70
2023-02-26T17:34:02.907Z,11.70
2023-02-26T17:39:08.589Z,11.70
2023-02-26T17:44:14.321Z,11.70
2023-02-26T17:49:24.500Z,11.70
2023-02-26T17:54:30.756Z,11.70
2023-02-26T17:59:36.947Z,11.70
2023-02-26T18:04:45.624Z,11.70
2023-02-26T18:09:56.495Z,11.60
2023-02-26T18:15:16.444Z,11.70
2023-02-26T18:20:25.117Z,11.60
2023-02-26T18:25:32.477Z,11.60
2023-02-26T18:30:41.355Z,11.70
2023-02-26T18:35:55.130Z,11.60
2023-02-26T18:41:02.806Z,11.60
2023-02-26T18:46:11.348Z,11.60
2023-02-26T18:51:18.576Z,11.60
2023-02-26T18:56:24.695Z,11.50
2023-02-26T19:01:31.690Z,11.50
2023-02-26T19:06:38.501Z,11.40
2023-02-26T19:11:48.606Z,11.40
2023-02-26T19:16:55.077Z,11.40
2023-02-26T19:22:02.297Z,11.40
2023-02-26T19:27:08.456Z,11.40
2023-02-26T19:32:16.013Z,11.40
2023-02-26T19:37:22.737Z,11.40
2023-02-26T19:42:29.066Z,11.30
2023-02-26T19:47:35.095Z,11.30
2023-02-26T19:52:44.445Z,11.30
2023-02-26T19:57:49.757Z,11.30
2023-02-26T20:02:57.223Z,11.30
2023-02-26T20:08:07.181Z,11.20
2023-02-26T20:13:13.310Z,11.20
2023-02-26T20:18:19.210Z,11.20
2023-02-26T20:23:28.114Z,11.10
2023-02-26T20:28:33.925Z,11.10
2023-02-26T20:33:40.441Z,11.10
2023-02-26T20:38:48.745Z,11.10
2023-02-26T20:43:57.588Z,11.10
2023-02-26T20:49:12.726Z,11.00
2023-02-26T20:54:23.449Z,11.00
2023-02-26T20:59:28.070Z,11.00
2023-02-26T21:04:34.513Z,10.90
2023-02-26T21:09:40.750Z,10.90
2023-02-26T21:14:47.280Z,10.80
2023-02-26T21:19:53.195Z,10.90
2023-02-26T21:24:59.193Z,10.80
2023-02-26T21:30:04.345Z,10.80
2023-02-26T21:35:11.902Z,10.80
2023-02-26T21:40:17.567Z,10.80
2023-02-26T21:45:22.044Z,10.80
2023-02-26T21:50:26.225Z,10.80
2023-02-26T21:55:34.025Z,10.70
2023-02-26T22:00:37.874Z,10.80
2023-02-26T22:05:41.452Z,10.70
2023-02-26T22:10:46.828Z,10.80
2023-02-26T22:15:50.251Z,10.70
2023-02-26T22:20:53.705Z,10.70
2023-02-26T22:25:58.584Z,10.70
2023-02-26T22:31:02.127Z,10.70
2023-02-26T22:36:06.340Z,10.70
2023-02-26T22:41:11.368Z,10.70
2023-02-26T22:46:17.064Z,10.70
2023-02-26T22:51:20.710Z,10.60
2023-02-26T22:56:26.250Z,10.70
2023-02-26T23:01:30.885Z,10.60
2023-02-26T23:06:36.639Z,10.60
2023-02-26T23:11:41.317Z,10.60
2023-02-26T23:16:44.966Z,10.60
2023-02-26T23:21:48.371Z,10.60
2023-02-26T23:26:53.394Z,10.60
2023-02-26T23:31:57.104Z,10.60
2023-02-26T23:37:02.567Z,10.50
2023-02-26T23:42:08.415Z,10.40
2023-02-26T23:47:12.019Z,10.40
2023-02-26T23:52:15.553Z,10.40
2023-02-26T23:57:20.403Z,10.30
